Beech Island, South Carolina
Current Conditions -  °F | °C
As of 10:08 AM on Monday 22 Dec 2014 (Local Time) from KAGS Reporting Station
Haze Haze  
Wind Chill: 46°   Ceiling: 600
Heat Index: 46°   Visibility: 5mi
Dew Point: 44°   Wind: 0mph
Humidity: 93%   Direction: NA
Pressure: 30.09"   Gusts: NA
Location:  33.43°N, 81.89°W
Report Text: KAGS 221508Z 00000KT 5SM BR OVC006 08/07 A3009 RMK AO2 T00780067
Loading
Personal Weather Stations






























Interactive Weather Map New forecast layout! Learn more

10-Day Weather Forecast

Advertisements
Track Severe Weather on mobile